sensor_id;sensor_type;location;lat;lon;timestamp;temperature;humidity
34522;DHT22;25561;48.888;8.736;2022-09-09T05:31:25;15.70;99.90
34522;DHT22;25561;48.888;8.736;2022-09-09T05:34:29;15.80;99.90
34522;DHT22;25561;48.888;8.736;2022-09-09T05:37:31;15.90;99.90
34522;DHT22;25561;48.888;8.736;2022-09-09T05:40:33;16.00;99.90
34522;DHT22;25561;48.888;8.736;2022-09-09T05:43:35;16.10;99.90
34522;DHT22;25561;48.888;8.736;2022-09-09T05:46:37;16.20;99.90
34522;DHT22;25561;48.888;8.736;2022-09-09T05:49:39;16.20;99.90
34522;DHT22;25561;48.888;8.736;2022-09-09T05:52:41;16.10;99.90
34522;DHT22;25561;48.888;8.736;2022-09-09T05:56:16;16.20;99.90
34522;DHT22;25561;48.888;8.736;2022-09-09T05:59:19;16.20;99.90
34522;DHT22;25561;48.888;8.736;2022-09-09T06:02:21;16.10;99.90
34522;DHT22;25561;48.888;8.736;2022-09-09T06:05:23;16.20;99.90
34522;DHT22;25561;48.888;8.736;2022-09-09T06:08:28;16.40;99.90
34522;DHT22;25561;48.888;8.736;2022-09-09T06:11:31;17.00;99.90
34522;DHT22;25561;48.888;8.736;2022-09-09T06:50:34;19.20;99.90
34522;DHT22;25561;48.888;8.736;2022-09-09T06:53:37;19.10;99.90
34522;DHT22;25561;48.888;8.736;2022-09-09T06:56:41;19.40;99.90
34522;DHT22;25561;48.888;8.736;2022-09-09T06:59:44;20.90;99.90
34522;DHT22;25561;48.888;8.736;2022-09-09T07:02:46;22.20;99.90
34522;DHT22;25561;48.888;8.736;2022-09-09T07:05:56;24.00;99.90
34522;DHT22;25561;48.888;8.736;2022-09-09T07:09:00;23.70;99.90
34522;DHT22;25561;48.888;8.736;2022-09-09T07:12:02;23.40;99.90
34522;DHT22;25561;48.888;8.736;2022-09-09T07:15:05;24.20;99.90
34522;DHT22;25561;48.888;8.736;2022-09-09T07:18:07;24.70;99.90
34522;DHT22;25561;48.888;8.736;2022-09-09T07:21:11;24.00;99.90
34522;DHT22;25561;48.888;8.736;2022-09-09T07:24:14;25.40;99.90
34522;DHT22;25561;48.888;8.736;2022-09-09T07:27:15;26.30;99.90
34522;DHT22;25561;48.888;8.736;2022-09-09T07:30:17;26.80;99.90
34522;DHT22;25561;48.888;8.736;2022-09-09T07:33:28;25.60;99.90
34522;DHT22;25561;48.888;8.736;2022-09-09T07:36:35;24.70;99.90
34522;DHT22;25561;48.888;8.736;2022-09-09T07:39:37;24.10;99.90
34522;DHT22;25561;48.888;8.736;2022-09-09T07:42:40;23.30;99.90
34522;DHT22;25561;48.888;8.736;2022-09-09T07:45:42;23.40;99.90
34522;DHT22;25561;48.888;8.736;2022-09-09T07:48:45;24.00;99.90
34522;DHT22;25561;48.888;8.736;2022-09-09T07:51:47;24.50;99.90
34522;DHT22;25561;48.888;8.736;2022-09-09T07:54:50;26.60;99.90
34522;DHT22;25561;48.888;8.736;2022-09-09T07:57:54;27.80;99.90
34522;DHT22;25561;48.888;8.736;2022-09-09T08:00:57;28.70;99.90
34522;DHT22;25561;48.888;8.736;2022-09-09T08:04:02;29.30;99.90
34522;DHT22;25561;48.888;8.736;2022-09-09T08:07:04;28.30;99.90
34522;DHT22;25561;48.888;8.736;2022-09-09T08:10:06;28.30;99.90
34522;DHT22;25561;48.888;8.736;2022-09-09T08:13:08;29.00;99.90
34522;DHT22;25561;48.888;8.736;2022-09-09T08:16:23;28.70;99.90
34522;DHT22;25561;48.888;8.736;2022-09-09T08:19:25;27.40;99.90
34522;DHT22;25561;48.888;8.736;2022-09-09T08:22:28;25.40;99.90
34522;DHT22;25561;48.888;8.736;2022-09-09T08:25:31;23.90;99.90
34522;DHT22;25561;48.888;8.736;2022-09-09T08:28:33;22.90;99.90
34522;DHT22;25561;48.888;8.736;2022-09-09T08:31:38;24.50;99.90
34522;DHT22;25561;48.888;8.736;2022-09-09T08:34:40;26.20;99.90
34522;DHT22;25561;48.888;8.736;2022-09-09T08:37:47;27.90;99.90
34522;DHT22;25561;48.888;8.736;2022-09-09T08:40:53;28.60;99.90
34522;DHT22;25561;48.888;8.736;2022-09-09T08:51:07;28.60;97.70
34522;DHT22;25561;48.888;8.736;2022-09-09T08:54:10;29.70;98.30
34522;DHT22;25561;48.888;8.736;2022-09-09T08:57:17;29.40;97.00
34522;DHT22;25561;48.888;8.736;2022-09-09T09:00:20;28.60;94.60
34522;DHT22;25561;48.888;8.736;2022-09-09T09:04:19;26.90;98.90
34522;DHT22;25561;48.888;8.736;2022-09-09T09:07:11;25.90;99.90
34522;DHT22;25561;48.888;8.736;2022-09-09T09:10:56;26.30;99.90
34522;DHT22;25561;48.888;8.736;2022-09-09T09:14:09;26.30;99.90
34522;DHT22;25561;48.888;8.736;2022-09-09T09:17:18;25.90;99.90
34522;DHT22;25561;48.888;8.736;2022-09-09T09:20:34;24.70;99.90
34522;DHT22;25561;48.888;8.736;2022-09-09T09:23:45;23.80;99.90
34522;DHT22;25561;48.888;8.736;2022-09-09T09:26:47;22.90;99.90
34522;DHT22;25561;48.888;8.736;2022-09-09T09:29:50;22.50;99.90
34522;DHT22;25561;48.888;8.736;2022-09-09T09:33:25;22.00;99.90
34522;DHT22;25561;48.888;8.736;2022-09-09T09:36:46;21.50;99.90
34522;DHT22;25561;48.888;8.736;2022-09-09T09:39:53;21.40;99.90
34522;DHT22;25561;48.888;8.736;2022-09-09T09:43:05;21.10;99.90
34522;DHT22;25561;48.888;8.736;2022-09-09T09:46:25;20.60;99.90
34522;DHT22;25561;48.888;8.736;2022-09-09T09:49:29;21.70;99.90
34522;DHT22;25561;48.888;8.736;2022-09-09T09:52:31;24.80;99.90
34522;DHT22;25561;48.888;8.736;2022-09-09T09:55:36;26.80;99.90
34522;DHT22;25561;48.888;8.736;2022-09-09T10:01:47;26.80;99.90
34522;DHT22;25561;48.888;8.736;2022-09-09T10:05:02;26.80;99.90
34522;DHT22;25561;48.888;8.736;2022-09-09T10:08:12;25.90;99.90
34522;DHT22;25561;48.888;8.736;2022-09-09T10:11:26;26.00;99.90
34522;DHT22;25561;48.888;8.736;2022-09-09T10:14:48;27.90;99.90
34522;DHT22;25561;48.888;8.736;2022-09-09T10:18:47;29.30;96.20
34522;DHT22;25561;48.888;8.736;2022-09-09T10:22:17;28.70;92.20
34522;DHT22;25561;48.888;8.736;2022-09-09T10:28:52;23.70;99.90
34522;DHT22;25561;48.888;8.736;2022-09-09T10:32:24;22.50;99.90
34522;DHT22;25561;48.888;8.736;2022-09-09T10:35:51;21.00;99.90
34522;DHT22;25561;48.888;8.736;2022-09-09T10:39:26;19.70;99.90
34522;DHT22;25561;48.888;8.736;2022-09-09T10:42:31;19.70;99.90
34522;DHT22;25561;48.888;8.736;2022-09-09T10:45:44;20.20;99.90
34522;DHT22;25561;48.888;8.736;2022-09-09T10:52:37;20.70;99.90
34522;DHT22;25561;48.888;8.736;2022-09-09T10:55:48;20.30;99.90
34522;DHT22;25561;48.888;8.736;2022-09-09T10:58:57;20.00;99.90
34522;DHT22;25561;48.888;8.736;2022-09-09T11:02:31;19.40;99.90
34522;DHT22;25561;48.888;8.736;2022-09-09T11:05:53;19.00;99.90
34522;DHT22;25561;48.888;8.736;2022-09-09T11:09:01;18.50;99.90
34522;DHT22;25561;48.888;8.736;2022-09-09T11:12:04;18.60;99.90
34522;DHT22;25561;48.888;8.736;2022-09-09T11:15:17;18.40;99.90
34522;DHT22;25561;48.888;8.736;2022-09-09T11:18:21;18.20;99.90
34522;DHT22;25561;48.888;8.736;2022-09-09T11:21:30;17.80;99.90
34522;DHT22;25561;48.888;8.736;2022-09-09T11:24:39;17.70;99.90
34522;DHT22;25561;48.888;8.736;2022-09-09T11:28:22;17.50;99.90
34522;DHT22;25561;48.888;8.736;2022-09-09T11:31:46;17.50;99.90
34522;DHT22;25561;48.888;8.736;2022-09-09T11:38:45;17.40;99.90
34522;DHT22;25561;48.888;8.736;2022-09-09T11:41:49;17.50;99.90
34522;DHT22;25561;48.888;8.736;2022-09-09T11:44:51;17.80;99.90
34522;DHT22;25561;48.888;8.736;2022-09-09T11:47:58;18.00;99.90
34522;DHT22;25561;48.888;8.736;2022-09-09T11:51:05;18.30;99.90
34522;DHT22;25561;48.888;8.736;2022-09-09T11:54:33;18.70;99.90
34522;DHT22;25561;48.888;8.736;2022-09-09T11:57:46;19.50;99.90
34522;DHT22;25561;48.888;8.736;2022-09-09T12:00:50;19.80;99.90
34522;DHT22;25561;48.888;8.736;2022-09-09T12:03:59;20.10;99.90
34522;DHT22;25561;48.888;8.736;2022-09-09T12:10:30;20.40;99.90
34522;DHT22;25561;48.888;8.736;2022-09-09T12:13:34;20.60;99.90
34522;DHT22;25561;48.888;8.736;2022-09-09T12:16:38;20.70;99.90
34522;DHT22;25561;48.888;8.736;2022-09-09T12:19:41;20.50;99.90
34522;DHT22;25561;48.888;8.736;2022-09-09T12:26:23;21.00;99.90
34522;DHT22;25561;48.888;8.736;2022-09-09T12:29:40;21.10;99.90
34522;DHT22;25561;48.888;8.736;2022-09-09T12:32:44;21.40;99.90
34522;DHT22;25561;48.888;8.736;2022-09-09T12:35:53;21.50;99.90
34522;DHT22;25561;48.888;8.736;2022-09-09T12:39:08;21.80;99.90
34522;DHT22;25561;48.888;8.736;2022-09-09T12:42:23;21.50;99.90
34522;DHT22;25561;48.888;8.736;2022-09-09T12:45:28;21.60;99.90
34522;DHT22;25561;48.888;8.736;2022-09-09T12:48:36;21.80;99.90
34522;DHT22;25561;48.888;8.736;2022-09-09T12:51:38;21.80;99.90
34522;DHT22;25561;48.888;8.736;2022-09-09T12:54:44;21.70;99.90
34522;DHT22;25561;48.888;8.736;2022-09-09T12:57:49;21.60;99.90
34522;DHT22;25561;48.888;8.736;2022-09-09T13:00:53;21.80;99.90
34522;DHT22;25561;48.888;8.736;2022-09-09T13:03:58;21.70;99.90
34522;DHT22;25561;48.888;8.736;2022-09-09T13:07:07;21.70;99.90
34522;DHT22;25561;48.888;8.736;2022-09-09T13:10:13;21.70;99.90
34522;DHT22;25561;48.888;8.736;2022-09-09T13:13:28;21.70;99.90
34522;DHT22;25561;48.888;8.736;2022-09-09T13:16:34;21.60;99.90
34522;DHT22;25561;48.888;8.736;2022-09-09T13:19:45;21.60;99.90
34522;DHT22;25561;48.888;8.736;2022-09-09T13:22:49;22.10;99.90
34522;DHT22;25561;48.888;8.736;2022-09-09T13:25:55;22.30;99.90
34522;DHT22;25561;48.888;8.736;2022-09-09T13:29:18;22.60;99.90
34522;DHT22;25561;48.888;8.736;2022-09-09T13:32:20;22.40;99.90
34522;DHT22;25561;48.888;8.736;2022-09-09T13:35:23;22.60;99.90
34522;DHT22;25561;48.888;8.736;2022-09-09T13:38:27;22.30;99.90
34522;DHT22;25561;48.888;8.736;2022-09-09T13:41:34;22.10;99.90
34522;DHT22;25561;48.888;8.736;2022-09-09T13:44:39;22.10;99.90
34522;DHT22;25561;48.888;8.736;2022-09-09T13:47:42;21.80;99.90
34522;DHT22;25561;48.888;8.736;2022-09-09T13:50:54;22.00;99.90
34522;DHT22;25561;48.888;8.736;2022-09-09T13:53:56;22.10;99.90
34522;DHT22;25561;48.888;8.736;2022-09-09T13:56:59;22.30;99.90
34522;DHT22;25561;48.888;8.736;2022-09-09T14:00:02;22.20;99.90
34522;DHT22;25561;48.888;8.736;2022-09-09T14:03:06;22.00;99.90
34522;DHT22;25561;48.888;8.736;2022-09-09T14:06:10;22.00;99.90
34522;DHT22;25561;48.888;8.736;2022-09-09T14:09:14;21.80;99.90
34522;DHT22;25561;48.888;8.736;2022-09-09T14:12:17;21.50;99.90
34522;DHT22;25561;48.888;8.736;2022-09-09T14:15:20;21.90;99.90
34522;DHT22;25561;48.888;8.736;2022-09-09T14:18:23;21.80;99.90
34522;DHT22;25561;48.888;8.736;2022-09-09T14:21:27;22.20;99.90
34522;DHT22;25561;48.888;8.736;2022-09-09T14:24:29;22.10;99.90
34522;DHT22;25561;48.888;8.736;2022-09-09T14:27:31;21.90;99.90
34522;DHT22;25561;48.888;8.736;2022-09-09T14:30:34;22.00;99.90
34522;DHT22;25561;48.888;8.736;2022-09-09T14:33:36;21.80;99.90
34522;DHT22;25561;48.888;8.736;2022-09-09T14:36:38;21.90;99.90
34522;DHT22;25561;48.888;8.736;2022-09-09T14:39:39;22.00;99.90
34522;DHT22;25561;48.888;8.736;2022-09-09T14:42:41;22.00;99.90
34522;DHT22;25561;48.888;8.736;2022-09-09T14:45:43;22.30;99.90
34522;DHT22;25561;48.888;8.736;2022-09-09T14:48:46;22.70;99.90
34522;DHT22;25561;48.888;8.736;2022-09-09T14:51:50;23.00;99.90
34522;DHT22;25561;48.888;8.736;2022-09-09T14:54:52;23.00;99.90
34522;DHT22;25561;48.888;8.736;2022-09-09T14:57:53;23.40;99.90
34522;DHT22;25561;48.888;8.736;2022-09-09T15:00:55;23.50;99.90
34522;DHT22;25561;48.888;8.736;2022-09-09T15:04:04;23.40;99.90
34522;DHT22;25561;48.888;8.736;2022-09-09T15:07:06;23.30;99.90
34522;DHT22;25561;48.888;8.736;2022-09-09T15:10:08;23.00;99.90
34522;DHT22;25561;48.888;8.736;2022-09-09T15:13:10;23.10;99.90
34522;DHT22;25561;48.888;8.736;2022-09-09T15:16:15;23.10;99.90
34522;DHT22;25561;48.888;8.736;2022-09-09T15:19:17;23.10;99.90
34522;DHT22;25561;48.888;8.736;2022-09-09T15:22:19;22.90;99.90
34522;DHT22;25561;48.888;8.736;2022-09-09T15:25:21;22.30;99.90
34522;DHT22;25561;48.888;8.736;2022-09-09T15:28:23;22.00;99.90
34522;DHT22;25561;48.888;8.736;2022-09-09T15:31:28;21.70;99.90
34522;DHT22;25561;48.888;8.736;2022-09-09T15:34:30;21.40;99.90
34522;DHT22;25561;48.888;8.736;2022-09-09T15:37:31;21.20;99.90
34522;DHT22;25561;48.888;8.736;2022-09-09T15:40:33;21.00;99.90
34522;DHT22;25561;48.888;8.736;2022-09-09T15:43:35;21.00;99.90
34522;DHT22;25561;48.888;8.736;2022-09-09T15:46:41;20.60;99.90
34522;DHT22;25561;48.888;8.736;2022-09-09T15:49:45;20.10;99.90
34522;DHT22;25561;48.888;8.736;2022-09-09T15:52:47;19.70;99.90
34522;DHT22;25561;48.888;8.736;2022-09-09T15:55:54;18.90;99.90
34522;DHT22;25561;48.888;8.736;2022-09-09T15:58:58;17.90;99.90
